Latest Weather Observations for Gingin Airport

IDW60801

Issued at 3:33 pm WST Monday 23 October 2017 (issued every 30 minutes, with the page automatically refreshed every 10 minutes)

About weather observations | Map of weather stations | Latest weather observations for WA | Other Formats
Station Details ID: 009178 Name: GINGIN AERO Lat: -31.46 Lon: 115.86 Height: 73.0 m
Data from the previous 72 hours. | See also: Recent months at Gingin Airport
Date/Time
WST
Temp
°C
App
Temp
°C
Dew
Point
°C
Rel
Hum
%
Delta-T
°C
Wind Press
QNH
hPa
Press
MSL
hPa
Rain since
9am
mm
Dir  Spd
km/h
Gust
km/h
Spd
kts
Gust
kts
23/03:30pm 22.5 19.4 14.6 61 4.7 SW 24 35 13 19 1015.3 1015.2 0.0
23/03:00pm 22.1 18.7 13.7 59 4.9 SSW 24 30 13 16 1015.2 1015.1 0.0
23/02:30pm 23.7 21.1 13.8 53 5.8 SW 20 28 11 15 1014.9 1014.8 0.0
23/02:00pm 22.7 19.3 13.7 56 5.2 SW 24 32 13 17 1015.2 1015.1 0.0
23/01:30pm 23.4 20.5 13.0 52 6.0 WSW 20 30 11 16 1015.1 1015.0 0.0
23/01:00pm 23.0 20.2 13.2 54 5.7 SW 20 32 11 17 1014.8 1014.7 0.0
23/12:30pm 22.8 21.3 13.0 54 5.6 WSW 13 24 7 13 1015.0 1014.9 0.0
23/12:00pm 22.7 20.5 13.2 55 5.5 SW 17 24 9 13 1015.0 1014.9 0.0
23/11:30am 22.7 22.1 13.5 56 5.3 SSW 9 20 5 11 1015.3 1015.2 0.0
23/11:00am 21.0 20.3 14.2 65 4.0 SW 11 15 6 8 1015.4 1015.3 0.0
23/10:30am 20.6 20.0 14.7 69 3.5 SW 11 17 6 9 1015.5 1015.4 0.0
23/10:00am 20.1 19.2 14.9 72 3.1 SSW 13 19 7 10 1015.7 1015.6 0.0
23/09:30am 19.7 19.3 15.1 75 2.7 SW 11 17 6 9 1015.7 1015.6 0.0
23/09:00am 18.9 18.1 15.0 78 2.3 SSW 13 17 7 9 1015.7 1015.6 0.0
23/08:30am 18.6 17.9 15.3 81 1.9 SSW 13 19 7 10 1015.7 1015.6 0.0
23/08:00am 18.2 17.5 15.5 84 1.6 SW 13 20 7 11 1015.6 1015.5 0.0
23/07:30am 18.3 17.9 16.3 88 1.2 SW 13 15 7 8 1015.3 1015.2 0.0
23/07:00am 18.0 18.9 16.7 92 0.8 SW 7 13 4 7 1014.9 1014.8 0.0
23/06:30am 17.4 18.2 16.4 94 0.6 WSW 7 11 4 6 1014.7 1014.6 0.0
23/06:00am 17.0 17.0 16.2 95 0.5 WSW 11 13 6 7 1014.5 1014.4 0.0
23/05:30am 16.6 16.8 15.8 95 0.5 WSW 9 9 5 5 1014.2 1014.1 0.0
23/05:00am 15.7 16.9 14.9 95 0.5 WNW 2 7 1 4 1014.0 1013.9 0.0
23/04:30am 15.3 15.6 14.5 95 0.5 NNW 6 7 3 4 1013.8 1013.7 0.0
23/04:00am 15.1 15.3 14.1 94 0.6 NW 6 7 3 4 1013.7 1013.6 0.0
23/03:30am 15.3 16.7 14.3 94 0.6 CALM 0 0 0 0 1013.4 1013.3 0.0
23/03:00am 15.9 17.1 14.9 94 0.6 WNW 2 7 1 4 1013.4 1013.3 0.0
23/02:30am 16.0 16.4 15.2 95 0.5 WNW 7 9 4 5 1013.4 1013.3 0.0
23/02:00am 15.8 16.2 14.8 94 0.6 NNW 6 9 3 5 1013.2 1013.1 0.0
23/01:30am 16.5 18.0 15.7 95 0.5 WNW 2 6 1 3 1013.2 1013.1 0.0
23/01:00am 16.5 17.1 15.7 95 0.5 WNW 7 9 4 5 1013.3 1013.2 0.0
23/12:30am 15.5 15.6 14.5 94 0.6 WNW 7 9 4 5 1013.5 1013.4 0.0
23/12:00am 14.6 14.0 13.5 93 0.6 NW 9 9 5 5 1013.8 1013.7 0.0
 
Date/Time
WST
Temp
°C
App
Temp
°C
Dew
Point
°C
Rel
Hum
%
Delta-T
°C
Wind Press
QNH
hPa
Press
MSL
hPa
Rain since
9am
mm
Dir  Spd
km/h
Gust
km/h
Spd
kts
Gust
kts
22/11:30pm 13.9 13.5 12.5 91 0.8 SW 6 7 3 4 1013.9 1013.8 0.0
22/11:00pm 14.0 13.5 12.6 91 0.8 SW 7 7 4 4 1014.0 1013.9 0.0
22/10:30pm 14.4 15.3 12.8 90 0.9 CALM 0 0 0 0 1014.1 1014.0 0.0
22/10:00pm 15.2 16.3 13.4 89 1.0 CALM 0 0 0 0 1014.2 1014.1 0.0
22/09:30pm 16.1 17.3 13.9 87 1.2 CALM 0 2 0 1 1014.3 1014.2 0.0
22/09:00pm 17.9 18.6 15.5 86 1.4 SW 6 7 3 4 1014.4 1014.3 0.0
22/08:30pm 18.7 19.0 15.9 84 1.7 SW 9 15 5 8 1014.3 1014.2 0.0
22/08:00pm 19.3 19.3 16.3 83 1.8 SW 11 15 6 8 1014.3 1014.2 0.0
22/07:30pm 19.1 18.7 16.3 84 1.7 WSW 13 17 7 9 1014.0 1013.9 0.0
22/07:00pm 19.2 18.4 16.2 83 1.8 SW 15 19 8 10 1013.7 1013.6 0.0
22/06:30pm 19.7 18.9 16.0 79 2.2 WSW 15 20 8 11 1013.2 1013.1 0.0
22/06:00pm 20.4 19.2 16.0 76 2.6 W 17 22 9 12 1012.7 1012.6 0.0
22/05:30pm 21.9 19.0 15.0 65 4.1 WSW 24 30 13 16 1012.1 1012.0 0.0
22/05:00pm 23.1 20.5 14.9 60 4.9 W 22 32 12 17 1011.8 1011.7 0.0
22/04:30pm 24.1 21.9 14.8 56 5.6 W 20 30 11 16 1011.5 1011.4 0.0
22/04:00pm 25.2 23.1 15.2 54 6.0 W 20 28 11 15 1011.5 1011.4 0.0
22/03:30pm 26.3 23.6 15.7 52 6.5 WSW 24 32 13 17 1011.2 1011.1 0.0
22/03:00pm 26.3 24.0 15.7 52 6.5 WSW 22 30 12 16 1011.0 1010.9 0.0
22/02:30pm 27.8 25.7 16.1 49 7.2 WSW 22 30 12 16 1010.9 1010.8 0.0
22/02:00pm 28.2 27.5 13.3 40 8.8 SW 9 13 5 7 1011.1 1011.0 0.0
22/01:30pm 28.1 26.5 12.8 38 9.0 W 13 19 7 10 1011.2 1011.1 0.0
22/01:00pm 27.9 27.9 14.2 43 8.2 NNW 7 11 4 6 1011.3 1011.2 0.0
22/12:30pm 26.5 25.6 13.6 45 7.6 E 11 17 6 9 1011.3 1011.2 0.0
22/12:00pm 26.0 23.8 13.2 45 7.5 E 17 26 9 14 1011.4 1011.3 0.0
22/11:30am 25.4 24.5 13.6 48 6.9 SE 11 19 6 10 1011.7 1011.6 0.0
22/11:00am 25.1 23.5 13.9 49 6.6 ESE 15 26 8 14 1012.4 1012.3 0.0
22/10:30am 24.1 23.1 13.3 51 6.3 ESE 11 20 6 11 1012.8 1012.7 0.0
22/10:00am 23.3 21.2 13.5 54 5.7 ESE 17 22 9 12 1012.9 1012.8 0.0
22/09:30am 23.0 21.4 12.9 53 5.8 ESE 13 20 7 11 1012.8 1012.7 0.0
22/09:00am 23.4 22.1 13.8 54 5.6 ESE 13 20 7 11 1012.7 1012.6 0.4
22/08:30am 22.8 20.9 13.0 54 5.6 ESE 15 22 8 12 1012.8 1012.7 0.4
22/08:00am 22.1 19.8 12.9 56 5.3 ESE 17 24 9 13 1012.7 1012.6 0.4
22/07:30am 21.8 20.2 12.9 57 5.1 ENE 13 20 7 11 1012.7 1012.6 0.4
22/07:00am 20.6 20.2 15.2 71 3.2 WNW 11 17 6 9 1012.8 1012.7 0.4
22/06:30am 20.2 19.0 12.7 62 4.2 WNW 11 15 6 8 1012.3 1012.2 0.4
22/06:00am 19.5 17.6 13.0 66 3.7 W 15 20 8 11 1011.4 1011.3 0.4
22/05:30am 19.0 16.1 13.0 68 3.4 E 20 24 11 13 1010.8 1010.7 0.4
22/05:00am 19.1 16.4 12.8 67 3.6 ENE 19 20 10 11 1011.5 1011.4 0.4
22/04:30am 18.4 18.4 12.4 68 3.3 NE 4 7 2 4 1012.2 1012.1 0.4
22/04:00am 19.1 17.8 12.4 65 3.8 NE 11 15 6 8 1012.3 1012.2 0.4
22/03:30am 20.1 18.0 12.3 61 4.4 NNE 15 20 8 11 1012.4 1012.3 0.4
22/03:00am 20.3 18.6 12.3 60 4.5 NNW 13 20 7 11 1012.6 1012.5 0.4
22/02:30am 21.2 17.4 12.3 57 5.0 E 24 39 13 21 1011.6 1011.5 0.4
22/02:00am 21.7 15.7 12.0 54 5.5 E 35 48 19 26 1011.6 1011.5 0.4
22/01:30am 22.2 18.1 11.6 51 5.9 E 24 35 13 19 1011.3 1011.2 0.4
22/01:00am 22.1 17.0 11.8 52 5.8 E 30 48 16 26 1011.5 1011.4 0.4
22/12:30am 22.3 17.6 12.0 52 5.8 E 28 41 15 22 1011.8 1011.7 0.4
22/12:02am 22.3 16.8 12.0 52 5.8 ENE 32 54 17 29 1012.1 1012.0 0.4
22/12:00am 22.4 17.0 12.1 52 5.8 ENE 32 46 17 25 1012.3 1012.2 0.4
 
Date/Time
WST
Temp
°C
App
Temp
°C
Dew
Point
°C
Rel
Hum
%
Delta-T
°C
Wind Press
QNH
hPa
Press
MSL
hPa
Rain since
9am
mm
Dir  Spd
km/h
Gust
km/h
Spd
kts
Gust
kts
21/11:41pm 22.0 17.0 12.3 54 5.5 ENE 30 48 16 26 1012.9 1012.8 0.4
21/11:30pm 22.5 16.4 11.9 51 6.0 E 35 46 19 25 1013.3 1013.2 0.4
21/11:00pm 22.4 17.1 12.6 54 5.6 E 32 50 17 27 1013.9 1013.8 0.4
21/10:57pm 22.7 18.1 12.3 52 5.9 E 28 50 15 27 1013.9 1013.8 0.4
21/10:30pm 21.0 17.1 13.2 61 4.5 E 26 32 14 17 1015.3 1015.2 0.4
21/10:00pm 21.8 17.8 12.9 57 5.1 ENE 26 35 14 19 1016.1 1016.0 0.2
21/09:30pm 21.6 16.7 12.7 57 5.1 ENE 30 41 16 22 1015.5 1015.4 0.2
21/09:00pm 23.3 19.7 11.7 48 6.5 ENE 22 32 12 17 1016.0 1015.9 0.2
21/08:59pm 23.2 19.5 11.6 48 6.5 ENE 22 32 12 17 1016.0 1015.9 0.2
21/08:30pm 21.7 22.3 13.1 58 4.9 ESE 2 7 1 4 1016.6 1016.5 0.0
21/08:00pm 23.2 19.9 10.9 46 6.8 ESE 19 24 10 13 1015.2 1015.1 0.0
21/07:30pm 23.9 21.0 10.9 44 7.3 SE 17 33 9 18 1015.3 1015.2 0.0
21/07:00pm 24.0 22.3 12.3 48 6.7 SSW 13 19 7 10 1015.8 1015.7 0.0
21/06:30pm 25.6 23.8 9.4 36 8.9 SE 9 13 5 7 1015.0 1014.9 0.0
21/06:00pm 26.9 23.5 9.3 33 9.7 ENE 17 22 9 12 1013.9 1013.8 0.0
21/05:30pm 28.0 22.3 8.3 29 10.7 ENE 28 35 15 19 1013.8 1013.7 0.0
21/05:00pm 28.3 23.2 9.1 30 10.6 ENE 26 39 14 21 1013.9 1013.8 0.0
21/04:30pm 27.9 24.7 10.1 33 10.0 NE 17 24 9 13 1014.6 1014.5 0.0
21/04:00pm 28.4 24.5 9.6 31 10.5 ENE 20 32 11 17 1013.8 1013.7 0.0
21/03:30pm 28.1 24.8 10.8 34 9.8 NE 19 26 10 14 1014.6 1014.5 0.0
21/03:00pm 28.0 24.4 10.7 34 9.8 NE 20 26 11 14 1014.6 1014.5 0.0
21/02:30pm 28.1 21.9 9.9 32 10.2 ENE 33 43 18 23 1014.7 1014.6 0.0
21/02:00pm 27.8 22.7 9.1 31 10.3 NE 26 35 14 19 1015.5 1015.4 0.0
21/01:30pm 27.7 22.7 9.5 32 10.1 NNE 26 41 14 22 1016.0 1015.9 0.0
21/01:00pm 26.9 22.8 8.8 32 9.9 NE 20 30 11 16 1016.1 1016.0 0.0
21/12:30pm 26.7 21.2 7.7 30 10.2 ENE 26 35 14 19 1016.0 1015.9 0.0
21/12:00pm 26.3 21.5 7.4 30 10.0 ENE 22 30 12 16 1017.2 1017.0 0.0
21/11:30am 25.3 20.6 7.9 33 9.3 E 22 28 12 15 1017.5 1017.3 0.0
21/11:00am 25.3 20.4 7.0 31 9.6 ENE 22 30 12 16 1017.9 1017.7 0.0
21/10:30am 25.3 19.9 6.5 30 9.8 ENE 24 32 13 17 1017.8 1017.6 0.0
21/10:00am 24.6 18.3 5.9 30 9.6 E 28 39 15 21 1018.2 1018.0 0.0
21/09:30am 24.8 19.0 6.1 30 9.6 ENE 26 37 14 20 1018.5 1018.3 0.0
21/09:00am 24.3 18.6 5.1 29 9.7 ENE 24 35 13 19 1018.6 1018.4 0.0
21/08:30am 23.3 16.9 5.2 31 9.1 ENE 28 41 15 22 1018.3 1018.1 0.0
21/08:00am 22.2 16.1 4.7 32 8.6 ENE 26 32 14 17 1018.3 1018.1 0.0
21/07:30am 22.4 15.4 4.0 30 9.0 ENE 30 41 16 22 1018.6 1018.4 0.0
21/07:00am 21.2 14.8 3.4 31 8.5 E 26 35 14 19 1018.7 1018.5 0.0
21/06:30am 20.4 15.0 2.7 31 8.3 E 20 28 11 15 1018.8 1018.6 0.0
21/06:00am 19.4 13.7 2.7 33 7.8 E 22 35 12 19 1018.6 1018.4 0.0
21/05:30am 18.5 13.4 2.8 35 7.3 E 19 26 10 14 1018.4 1018.2 0.0
21/05:00am 18.9 13.5 2.7 34 7.5 E 20 28 11 15 1018.4 1018.2 0.0
21/04:30am 19.2 14.1 3.0 34 7.6 E 19 30 10 16 1018.5 1018.3 0.0
21/04:00am 18.3 13.2 3.0 36 7.1 E 19 33 10 18 1018.4 1018.2 0.0
21/03:30am 18.5 13.2 3.2 36 7.1 ESE 20 26 11 14 1018.4 1018.2 0.0
21/03:00am 19.3 14.0 3.1 34 7.6 ESE 20 28 11 15 1018.4 1018.2 0.0
21/02:30am 19.8 14.7 3.1 33 7.9 ESE 19 24 10 13 1018.7 1018.5 0.0
21/02:00am 20.9 14.4 2.7 30 8.5 ESE 26 33 14 18 1018.8 1018.6 0.0
21/01:30am 21.5 15.4 2.7 29 8.9 ESE 24 32 13 17 1019.0 1018.9 0.0
21/01:00am 21.4 16.2 2.6 29 8.8 ESE 19 24 10 13 1019.2 1019.1 0.0
21/12:30am 21.4 16.3 3.1 30 8.7 ESE 19 24 10 13 1019.3 1019.2 0.0
21/12:00am 20.2 15.5 3.4 33 8.0 SE 17 20 9 11 1019.7 1019.6 0.0
 
Date/Time
WST
Temp
°C
App
Temp
°C
Dew
Point
°C
Rel
Hum
%
Delta-T
°C
Wind Press
QNH
hPa
Press
MSL
hPa
Rain since
9am
mm
Dir  Spd
km/h
Gust
km/h
Spd
kts
Gust
kts
20/11:30pm 19.9 15.7 3.6 34 7.8 SE 15 17 8 9 1019.9 1019.8 0.0
20/11:00pm 20.2 16.0 3.9 34 7.8 SE 15 19 8 10 1020.2 1020.1 0.0
20/10:30pm 20.7 16.5 3.9 33 8.1 SE 15 19 8 10 1020.5 1020.4 0.0
20/10:00pm 21.0 16.5 4.1 33 8.2 SE 17 20 9 11 1020.6 1020.5 0.0
20/09:30pm 19.5 15.6 5.2 39 7.0 SE 15 19 8 10 1021.0 1020.9 0.0
20/09:00pm 19.2 15.3 5.3 40 6.8 SE 15 15 8 8 1021.3 1021.2 0.0
20/08:30pm 19.9 16.7 5.2 38 7.2 SE 11 13 6 7 1021.6 1021.5 0.0
20/08:00pm 20.8 17.6 5.2 36 7.7 SE 11 13 6 7 1021.5 1021.4 0.0
20/07:30pm 21.9 18.4 5.3 34 8.3 SE 13 15 7 8 1021.1 1021.0 0.0
20/07:00pm 23.0 19.5 5.4 32 8.8 SE 13 15 7 8 1020.9 1020.8 0.0
20/06:30pm 25.1 21.5 4.8 27 10.2 SE 13 15 7 8 1020.6 1020.5 0.0
20/06:00pm 27.2 23.1 4.3 23 11.6 ESE 15 17 8 9 1020.4 1020.3 0.0
20/05:30pm 28.4 23.3 4.0 21 12.4 SE 20 28 11 15 1020.2 1020.1 0.0
20/05:00pm 29.1 24.0 3.9 20 12.8 ESE 20 28 11 15 1020.2 1020.1 0.0
20/04:30pm 29.4 24.2 3.4 19 13.2 ESE 20 28 11 15 1020.4 1020.3 0.0
20/04:00pm 29.7 24.5 3.6 19 13.2 E 20 30 11 16 1020.3 1020.2 0.0

Other Formats:

Comma delimited format used in spreadsheet applications
http://www.bom.gov.au/fwo/IDW60801/IDW60801.95612.axf

JavaScript Object Notation format (JSON) in row-major order
http://www.bom.gov.au/fwo/IDW60801/IDW60801.95612.json